OOCL Nagoya — VRFX8 — position and weather

sailwx.info

Track history (hours):
 
Tides and Currents Weather Stations Pressure Air Temp Water Temp Dewpoint Dewpoint Depression Visibility Wind Speed Wind Dir Waves Ship Positions

OOCL Nagoya

Last reported at 2014-Aug-27 15:33 UTC. Time now 2014-Aug-28 03:26 UTC.
Position N 33°50' E 134°59'.

Length 260 m; draft 8.7 m.

Type: Cargo ship. MMSI: 477627900.

Date/timePositionNaut miles runAvg speedWind from/ knotsBaromVisibWave heightAir tempDewpointWater temp
2014-Aug-27 15:33N 33°50' E 134°59'2020.6
2014-Aug-27 14:33N 34°10' E 134°58'1615.8
2014-Aug-27 13:33N 34°26' E 135°03'1716.8
2014-Aug-27 12:33N 34°40' E 135°15'0 0.3
2014-Aug-27 11:28N 34°39' E 135°15'0 0.1
2014-Aug-27 10:28N 34°39' E 135°14'0 0.1
2014-Aug-27 09:28N 34°39' E 135°15'0 0.0
2014-Aug-27 08:28N 34°39' E 135°15'0 0.0
2014-Aug-27 07:28N 34°39' E 135°15'0 0.0
2014-Aug-27 06:22N 34°39' E 135°15'0 0.0
2014-Aug-27 05:28N 34°39' E 135°15'0 0.0
2014-Aug-27 04:28N 34°39' E 135°15'0 0.0
2014-Aug-27 03:28N 34°39' E 135°15'3 3.3
2014-Aug-27 02:33N 34°38' E 135°17'0 0.0
2014-Aug-27 01:23N 34°38' E 135°17'0 0.0
2014-Aug-27 00:32N 34°38' E 135°17'0 0.0
2014-Aug-26 23:26N 34°38' E 135°17'0 0.2
2014-Aug-26 22:32N 34°38' E 135°18'7 7.1
2014-Aug-26 21:33N 34°39' E 135°26'1 0.2
2014-Aug-26 18:21N 34°38' E 135°26'0 0.0
2014-Aug-26 16:33N 34°38' E 135°26'0 0.0
2014-Aug-26 15:27N 34°38' E 135°26'0 0.0
2014-Aug-26 10:33N 34°38' E 135°26'8 8.0
2014-Aug-26 09:33N 34°34' E 135°18'1918.6
2014-Aug-26 08:33N 34°21' E 135°02'1616.4
2014-Aug-26 07:33N 34°05' E 134°58'1715.3
2014-Aug-26 06:28N 33°49' E 134°54'89521.3
2014-Aug-24 12:31N 25°25' E 120°42'3222.0
2014-Aug-24 11:04N 25°08' E 120°13'1722.5
2014-Aug-24 10:19N 24°58' E 119°57'1823.3
2014-Aug-24 09:33N 24°50' E 119°40'2423.8
2014-Aug-24 08:33N 24°38' E 119°18'2422.5
2014-Aug-24 07:29N 24°26' E 118°55'2021.7
2014-Aug-24 06:33N 24°17' E 118°35'2020.2
2014-Aug-24 05:33N 24°18' E 118°13'1413.5
2014-Aug-24 04:33N 24°28' E 118°03'2 2.4
2014-Aug-24 03:31N 24°31' E 118°05'0 0.0
2014-Aug-24 02:31N 24°31' E 118°05'0 0.0
2014-Aug-24 01:22N 24°31' E 118°05'0 0.0
2014-Aug-24 00:22N 24°31' E 118°05'0 0.0
2014-Aug-23 23:22N 24°31' E 118°05'0 0.0
2014-Aug-23 22:28N 24°31' E 118°05'0 0.0
2014-Aug-23 21:31N 24°31' E 118°05'0 0.0
2014-Aug-23 20:31N 24°31' E 118°05'6 6.2
2014-Aug-23 19:33N 24°25' E 118°05'25414.1
2014-Aug-23 01:32N 22°19' E 114°05'1 1.0
2014-Aug-23 00:32N 22°20' E 114°05'0 0.1
2014-Aug-22 23:26N 22°20' E 114°04'0 0.0
2014-Aug-22 21:14N 22°20' E 114°04'0 0.2
2014-Aug-22 20:32N 22°20' E 114°05'0 0.1
2014-Aug-22 19:26N 22°20' E 114°04'0 0.2
2014-Aug-22 18:26N 22°20' E 114°04'0 0.0
2014-Aug-22 16:32N 22°20' E 114°04'0 0.1
2014-Aug-22 15:05N 22°20' E 114°05'10 6.6
2014-Aug-22 13:33N 22°23' E 113°54'5 4.9
2014-Aug-22 12:33N 22°28' E 113°54'0 0.1
2014-Aug-22 11:29N 22°28' E 113°54'0 0.0
2014-Aug-22 10:29N 22°28' E 113°54'0 0.0
2014-Aug-22 09:32N 22°28' E 113°54'0 0.0
2014-Aug-22 08:32N 22°28' E 113°54'0 0.0
2014-Aug-22 07:32N 22°28' E 113°54'0 0.0
2014-Aug-22 06:32N 22°28' E 113°54'0 0.0
2014-Aug-22 05:32N 22°28' E 113°54'0 0.0
2014-Aug-22 04:32N 22°28' E 113°54'0 0.0
2014-Aug-22 03:29N 22°28' E 113°54'0 0.0
2014-Aug-22 02:32N 22°28' E 113°54'0 0.0
2014-Aug-22 01:32N 22°28' E 113°54'0 0.0
2014-Aug-22 00:32N 22°28' E 113°54'0 0.0
2014-Aug-21 23:29N 22°28' E 113°54'0 0.0
2014-Aug-21 22:29N 22°28' E 113°54'0 0.0
2014-Aug-21 21:29N 22°28' E 113°54'0 0.0
2014-Aug-21 20:33N 22°28' E 113°54'3 3.4
2014-Aug-21 19:33N 22°24' E 113°54'12 8.4
2014-Aug-21 18:10N 22°20' E 114°05'116 9.5
2014-Aug-21 06:00N 20°24' E 113°54'8013.3 160 / 31007.810.8 8.030.026.0
2014-Aug-21 00:00N 19°06' E 113°36'59214.1 160 / 31007.810.8 8.026.021.0
2014-Aug-19 06:00N 10°18' E 109°00'   240 / 251007.010.8 3.030.024.0
Track history (hours):
 
Tides and Currents Weather Stations Pressure Air Temp Water Temp Dewpoint Dewpoint Depression Visibility Wind Speed Wind Dir Waves Ship Positions

OOCL Nagoya

Last reported at 2014-Aug-27 15:33 UTC. Time now 2014-Aug-28 03:26 UTC.
Position N 33°50' E 134°59'.

Length 260 m; draft 8.7 m.

Type: Cargo ship. MMSI: 477627900.

Date/timePositionNaut miles runAvg speedWind from/ knotsBaromVisibWave heightAir tempDewpointWater temp
2014-Aug-27 15:33N 33°50' E 134°59'2020.6
2014-Aug-27 14:33N 34°10' E 134°58'1615.8
2014-Aug-27 13:33N 34°26' E 135°03'1716.8
2014-Aug-27 12:33N 34°40' E 135°15'0 0.3
2014-Aug-27 11:28N 34°39' E 135°15'0 0.1
2014-Aug-27 10:28N 34°39' E 135°14'0 0.1
2014-Aug-27 09:28N 34°39' E 135°15'0 0.0
2014-Aug-27 08:28N 34°39' E 135°15'0 0.0
2014-Aug-27 07:28N 34°39' E 135°15'0 0.0
2014-Aug-27 06:22N 34°39' E 135°15'0 0.0
2014-Aug-27 05:28N 34°39' E 135°15'0 0.0
2014-Aug-27 04:28N 34°39' E 135°15'0 0.0
2014-Aug-27 03:28N 34°39' E 135°15'3 3.3
2014-Aug-27 02:33N 34°38' E 135°17'0 0.0
2014-Aug-27 01:23N 34°38' E 135°17'0 0.0
2014-Aug-27 00:32N 34°38' E 135°17'0 0.0
2014-Aug-26 23:26N 34°38' E 135°17'0 0.2
2014-Aug-26 22:32N 34°38' E 135°18'7 7.1
2014-Aug-26 21:33N 34°39' E 135°26'1 0.2
2014-Aug-26 18:21N 34°38' E 135°26'0 0.0
2014-Aug-26 16:33N 34°38' E 135°26'0 0.0
2014-Aug-26 15:27N 34°38' E 135°26'0 0.0
2014-Aug-26 10:33N 34°38' E 135°26'8 8.0
2014-Aug-26 09:33N 34°34' E 135°18'1918.6
2014-Aug-26 08:33N 34°21' E 135°02'1616.4
2014-Aug-26 07:33N 34°05' E 134°58'1715.3
2014-Aug-26 06:28N 33°49' E 134°54'89521.3
2014-Aug-24 12:31N 25°25' E 120°42'3222.0
2014-Aug-24 11:04N 25°08' E 120°13'1722.5
2014-Aug-24 10:19N 24°58' E 119°57'1823.3
2014-Aug-24 09:33N 24°50' E 119°40'2423.8
2014-Aug-24 08:33N 24°38' E 119°18'2422.5
2014-Aug-24 07:29N 24°26' E 118°55'2021.7
2014-Aug-24 06:33N 24°17' E 118°35'2020.2
2014-Aug-24 05:33N 24°18' E 118°13'1413.5
2014-Aug-24 04:33N 24°28' E 118°03'2 2.4
2014-Aug-24 03:31N 24°31' E 118°05'0 0.0
2014-Aug-24 02:31N 24°31' E 118°05'0 0.0
2014-Aug-24 01:22N 24°31' E 118°05'0 0.0
2014-Aug-24 00:22N 24°31' E 118°05'0 0.0
2014-Aug-23 23:22N 24°31' E 118°05'0 0.0
2014-Aug-23 22:28N 24°31' E 118°05'0 0.0
2014-Aug-23 21:31N 24°31' E 118°05'0 0.0
2014-Aug-23 20:31N 24°31' E 118°05'6 6.2
2014-Aug-23 19:33N 24°25' E 118°05'25414.1
2014-Aug-23 01:32N 22°19' E 114°05'1 1.0
2014-Aug-23 00:32N 22°20' E 114°05'0 0.1
2014-Aug-22 23:26N 22°20' E 114°04'0 0.0
2014-Aug-22 21:14N 22°20' E 114°04'0 0.2
2014-Aug-22 20:32N 22°20' E 114°05'0 0.1
2014-Aug-22 19:26N 22°20' E 114°04'0 0.2
2014-Aug-22 18:26N 22°20' E 114°04'0 0.0
2014-Aug-22 16:32N 22°20' E 114°04'0 0.1
2014-Aug-22 15:05N 22°20' E 114°05'10 6.6
2014-Aug-22 13:33N 22°23' E 113°54'5 4.9
2014-Aug-22 12:33N 22°28' E 113°54'0 0.1
2014-Aug-22 11:29N 22°28' E 113°54'0 0.0
2014-Aug-22 10:29N 22°28' E 113°54'0 0.0
2014-Aug-22 09:32N 22°28' E 113°54'0 0.0
2014-Aug-22 08:32N 22°28' E 113°54'0 0.0
2014-Aug-22 07:32N 22°28' E 113°54'0 0.0
2014-Aug-22 06:32N 22°28' E 113°54'0 0.0
2014-Aug-22 05:32N 22°28' E 113°54'0 0.0
2014-Aug-22 04:32N 22°28' E 113°54'0 0.0
2014-Aug-22 03:29N 22°28' E 113°54'0 0.0
2014-Aug-22 02:32N 22°28' E 113°54'0 0.0
2014-Aug-22 01:32N 22°28' E 113°54'0 0.0
2014-Aug-22 00:32N 22°28' E 113°54'0 0.0
2014-Aug-21 23:29N 22°28' E 113°54'0 0.0
2014-Aug-21 22:29N 22°28' E 113°54'0 0.0
2014-Aug-21 21:29N 22°28' E 113°54'0 0.0
2014-Aug-21 20:33N 22°28' E 113°54'3 3.4
2014-Aug-21 19:33N 22°24' E 113°54'12 8.4
2014-Aug-21 18:10N 22°20' E 114°05'116 9.5
2014-Aug-21 06:00N 20°24' E 113°54'8013.3 160 / 31007.810.8 8.030.026.0
2014-Aug-21 00:00N 19°06' E 113°36'59214.1 160 / 31007.810.8 8.026.021.0
2014-Aug-19 06:00N 10°18' E 109°00'   240 / 251007.010.8 3.030.024.0

Dump ship's entire track history